Time;durP1;ratioP1;P1;durP2;ratioP2;P2;SDS_P1;SDS_P2;PMS_P1;PMS_P2;Temp;Humidity;BMP_temperature;BMP_pressure;BME280_temperature;BME280_humidity;BME280_pressure;Samples;Min_cycle;Max_cycle;Signal;HPM_P1;HPM_P2
2022/03/18 00:01:22;;;;;;;34.80;15.23;;;;;;;0.58;44.43;102408.00;4202392;28;20233;-72
2022/03/18 00:03:49;;;;;;;31.77;14.13;;;;;;;0.53;44.70;102403.75;4187558;28;20240;-74
2022/03/18 00:06:17;;;;;;;33.53;14.13;;;;;;;0.66;44.40;102412.25;4196483;28;21796;-72
2022/03/18 00:08:46;;;;;;;29.00;13.50;;;;;;;0.66;43.95;102409.63;4191209;28;20331;-73
2022/03/18 00:11:15;;;;;;;34.60;13.30;;;;;;;0.72;44.04;102415.56;4182098;28;23037;-73
2022/03/18 00:13:41;;;;;;;33.30;12.73;;;;;;;0.58;44.12;102417.63;4195072;28;22508;-71
2022/03/18 00:16:08;;;;;;;35.40;12.90;;;;;;;0.60;44.40;102421.94;4195642;28;20252;-73
2022/03/18 00:18:34;;;;;;;32.37;13.37;;;;;;;0.62;44.30;102421.91;4198624;28;20236;-73
2022/03/18 00:21:01;;;;;;;30.90;12.57;;;;;;;0.69;44.65;102426.13;4179631;28;20297;-73
2022/03/18 00:23:28;;;;;;;33.63;13.30;;;;;;;0.65;44.24;102429.69;4201402;28;20225;-72
2022/03/18 00:25:54;;;;;;;38.23;13.90;;;;;;;0.56;44.80;102429.88;4204815;28;21349;-72
2022/03/18 00:28:20;;;;;;;30.13;12.43;;;;;;;0.41;45.45;102431.94;4201765;28;20252;-71
2022/03/18 00:30:48;;;;;;;31.80;13.57;;;;;;;0.41;45.69;102425.84;4192843;28;25516;-71
2022/03/18 00:33:15;;;;;;;38.43;12.77;;;;;;;0.35;45.54;102421.59;4201155;28;20239;-71
2022/03/18 00:35:41;;;;;;;34.53;13.00;;;;;;;0.26;45.60;102423.50;4190965;28;20300;-73
2022/03/18 00:38:08;;;;;;;30.47;12.53;;;;;;;0.23;46.23;102431.44;4197331;28;22768;-73
2022/03/18 00:40:35;;;;;;;26.93;12.33;;;;;;;0.28;46.09;102430.47;4191336;28;20286;-73
2022/03/18 00:43:03;;;;;;;29.27;13.07;;;;;;;0.24;46.23;102435.78;4195224;28;23738;-72
2022/03/18 00:45:31;;;;;;;33.30;12.87;;;;;;;0.47;45.30;102433.56;4193253;28;20238;-74
2022/03/18 00:53:28;;;;;;;34.53;14.57;;;;;;;0.32;45.24;102437.34;4192262;28;20237;-72
2022/03/18 00:55:54;;;;;;;31.77;13.20;;;;;;;0.14;46.91;102435.97;4200757;28;20626;-73
2022/03/18 00:58:21;;;;;;;33.40;13.07;;;;;;;0.29;46.49;102433.94;4191830;28;20255;-74
2022/03/18 01:00:48;;;;;;;35.63;14.00;;;;;;;0.23;46.21;102442.75;4196177;28;20241;-72
2022/03/18 01:03:15;;;;;;;33.40;12.70;;;;;;;0.21;46.49;102434.06;4196895;28;20243;-72
2022/03/18 01:05:43;;;;;;;30.43;12.70;;;;;;;0.18;46.61;102428.91;4197806;28;20242;-73
2022/03/18 01:08:09;;;;;;;29.10;12.33;;;;;;;0.04;46.70;102423.91;4193593;28;20276;-72
2022/03/18 01:10:36;;;;;;;30.57;12.73;;;;;;;-0.08;47.86;102422.38;4195105;28;20798;-73
2022/03/18 01:13:03;;;;;;;28.43;12.67;;;;;;;-0.12;47.93;102428.56;4192795;28;21395;-72
2022/03/18 01:15:29;;;;;;;26.83;12.50;;;;;;;-0.18;48.35;102425.22;4177705;28;20374;-71
2022/03/18 01:17:56;;;;;;;30.90;12.33;;;;;;;-0.19;48.09;102424.31;4183882;28;21817;-72
2022/03/18 01:20:22;;;;;;;24.83;11.37;;;;;;;-0.22;48.20;102420.00;4205269;28;20248;-71
2022/03/18 01:22:49;;;;;;;36.63;13.07;;;;;;;-0.24;48.62;102415.69;4187697;28;20225;-71
2022/03/18 01:25:16;;;;;;;29.47;12.37;;;;;;;-0.29;48.93;102433.22;4195077;28;20228;-72
2022/03/18 01:27:42;;;;;;;27.10;11.10;;;;;;;-0.28;48.66;102434.94;4198374;28;20237;-71
2022/03/18 01:30:09;;;;;;;29.93;12.00;;;;;;;-0.27;48.63;102434.06;4211419;28;20252;-71
2022/03/18 01:32:36;;;;;;;30.47;11.77;;;;;;;-0.27;48.71;102436.69;4204131;28;20671;-72
2022/03/18 01:35:03;;;;;;;28.30;11.70;;;;;;;-0.26;49.23;102431.44;4192931;28;25727;-72
2022/03/18 01:37:29;;;;;;;30.47;11.37;;;;;;;-0.16;48.64;102429.53;4204486;28;20301;-72
2022/03/18 01:39:56;;;;;;;29.93;11.93;;;;;;;-0.18;49.03;102440.91;4201808;28;20336;-74
2022/03/18 01:42:22;;;;;;;29.83;12.17;;;;;;;-0.20;48.53;102443.53;4208087;28;20297;-72
2022/03/18 01:44:49;;;;;;;31.43;11.87;;;;;;;-0.31;49.35;102445.47;4206906;28;20228;-72
2022/03/18 01:47:16;;;;;;;25.70;11.27;;;;;;;-0.32;49.55;102444.63;4191896;28;20916;-73
2022/03/18 01:49:42;;;;;;;30.47;12.17;;;;;;;-0.39;49.66;102440.38;4198731;28;20249;-72
2022/03/18 01:52:10;;;;;;;27.50;11.03;;;;;;;-0.41;49.58;102443.91;4200415;28;20703;-72
2022/03/18 01:54:49;;;;;;;29.90;12.07;;;;;;;-0.45;49.63;102436.09;4195259;28;20276;-73
2022/03/18 01:57:23;;;;;;;26.97;11.43;;;;;;;-0.46;49.80;102437.00;4194941;28;20247;-72
2022/03/18 01:59:51;;;;;;;28.63;11.13;;;;;;;-0.41;49.40;102438.69;4184966;28;21745;-72
2022/03/18 02:02:18;;;;;;;31.20;11.27;;;;;;;-0.34;49.50;102440.31;4199025;28;20704;-73
2022/03/18 02:04:45;;;;;;;27.27;11.20;;;;;;;-0.33;49.19;102439.41;4201918;28;20694;-73
2022/03/18 02:07:13;;;;;;;27.63;10.90;;;;;;;-0.44;49.99;102442.22;4198991;28;20236;-73
2022/03/18 02:09:40;;;;;;;30.60;10.73;;;;;;;-0.45;49.86;102443.94;4192468;28;20419;-75
2022/03/18 02:12:07;;;;;;;32.23;11.90;;;;;;;-0.45;49.86;102443.06;4190012;28;20229;-74
2022/03/18 02:14:41;;;;;;;30.03;10.93;;;;;;;-0.54;50.57;102441.50;4187740;28;22865;-71
2022/03/18 02:17:09;;;;;;;32.57;11.07;;;;;;;-0.54;50.49;102440.59;4189018;28;21489;-72
2022/03/18 02:19:37;;;;;;;27.93;11.27;;;;;;;-0.52;50.31;102439.69;4183540;28;20842;-71
2022/03/18 02:22:10;;;;;;;25.80;11.07;;;;;;;-0.37;49.49;102449.06;4196373;28;20306;-70
2022/03/18 02:24:38;;;;;;;31.70;10.80;;;;;;;-0.48;49.61;102449.22;4192456;28;20237;-70
2022/03/18 02:27:05;;;;;;;28.00;11.97;;;;;;;-0.48;50.15;102456.22;4193812;28;20412;-69
2022/03/18 02:29:32;;;;;;;32.33;13.00;;;;;;;-0.53;50.08;102447.56;4210292;28;20238;-70
2022/03/18 02:31:59;;;;;;;27.80;12.23;;;;;;;-0.60;50.31;102454.66;4196790;28;20241;-70
2022/03/18 02:34:26;;;;;;;31.90;11.37;;;;;;;-0.66;50.87;102449.50;4206625;28;20245;-70
2022/03/18 02:36:53;;;;;;;32.63;12.20;;;;;;;-0.69;51.34;102455.66;4202317;28;20358;-69
2022/03/18 02:39:20;;;;;;;30.30;12.33;;;;;;;-0.74;51.85;102448.78;4201865;28;20307;-70
2022/03/18 02:41:46;;;;;;;27.93;12.00;;;;;;;-0.76;51.30;102458.38;4199746;28;20237;-70
2022/03/18 02:44:13;;;;;;;28.77;12.13;;;;;;;-0.85;51.72;102457.63;4193938;28;20319;-71
2022/03/18 02:46:40;;;;;;;24.37;11.17;;;;;;;-0.83;52.02;102459.34;4195100;28;20390;-70
2022/03/18 02:49:07;;;;;;;25.80;10.63;;;;;;;-0.86;51.55;102465.50;4196506;28;20250;-70
2022/03/18 02:51:37;;;;;;;29.30;11.27;;;;;;;-0.88;51.86;102465.50;4187761;28;20265;-69
2022/03/18 02:54:05;;;;;;;31.53;11.53;;;;;;;-0.88;51.96;102462.88;4204067;28;20337;-69
2022/03/18 02:56:32;;;;;;;33.43;11.60;;;;;;;-0.89;51.74;102465.50;4197974;28;20232;-69
2022/03/18 02:59:00;;;;;;;28.90;11.93;;;;;;;-0.94;52.47;102469.94;4182076;28;20239;-69
2022/03/18 03:01:27;;;;;;;29.97;12.53;;;;;;;-0.99;52.34;102472.63;4186982;28;20237;-71
2022/03/18 03:03:54;;;;;;;27.83;10.97;;;;;;;-0.89;52.59;102474.25;4189538;28;20221;-70
2022/03/18 03:09:06;;;;;;;27.37;11.83;;;;;;;-1.00;52.34;102483.13;4214672;28;20232;-69
2022/03/18 03:11:34;;;;;;;23.90;11.13;;;;;;;-0.86;52.21;102489.88;4186048;28;20249;-71
2022/03/18 03:14:01;;;;;;;29.23;11.87;;;;;;;-0.93;52.42;102485.63;4204325;28;20240;-71
2022/03/18 03:16:28;;;;;;;28.77;11.77;;;;;;;-1.04;53.15;102487.50;4201971;28;22117;-70
2022/03/18 03:18:54;;;;;;;24.83;11.23;;;;;;;-1.12;53.40;102478.91;4194662;28;20248;-72
2022/03/18 03:21:21;;;;;;;26.10;12.13;;;;;;;-1.11;53.34;102493.69;4205127;28;21214;-72
2022/03/18 03:23:47;;;;;;;30.03;12.27;;;;;;;-1.08;53.08;102496.25;4198707;28;22469;-69
2022/03/18 03:26:14;;;;;;;27.10;11.27;;;;;;;-1.06;53.10;102494.50;4184816;28;20284;-70
2022/03/18 03:28:41;;;;;;;30.67;11.43;;;;;;;-0.95;52.64;102492.63;4178441;28;20279;-71
2022/03/18 03:31:08;;;;;;;29.57;11.43;;;;;;;-1.07;53.59;102495.38;4196790;28;20590;-70
2022/03/18 03:33:34;;;;;;;28.97;12.00;;;;;;;-1.14;53.52;102494.59;4194759;28;20233;-70
2022/03/18 03:36:01;;;;;;;34.20;11.93;;;;;;;-1.17;53.38;102492.03;4190834;28;20234;-72
2022/03/18 03:38:28;;;;;;;30.43;12.07;;;;;;;-1.12;53.80;102497.19;4191946;28;20669;-71
2022/03/18 03:40:54;;;;;;;23.03;11.43;;;;;;;-1.20;53.81;102486.81;4203221;28;20233;-70
2022/03/18 03:43:21;;;;;;;30.27;11.57;;;;;;;-1.20;53.94;102499.03;4189435;28;20746;-70
2022/03/18 03:45:48;;;;;;;27.40;12.53;;;;;;;-1.24;54.03;102506.06;4193074;28;20241;-70
2022/03/18 03:48:14;;;;;;;30.87;11.47;;;;;;;-1.21;53.79;102508.63;4200350;28;20712;-69
2022/03/18 03:50:41;;;;;;;24.23;11.63;;;;;;;-1.22;54.56;102506.88;4188210;28;20300;-70
2022/03/18 03:53:08;;;;;;;32.40;12.03;;;;;;;-1.37;54.47;102512.28;4187274;28;21173;-70
2022/03/18 03:55:39;;;;;;;35.60;12.90;;;;;;;-1.39;54.80;102514.91;4201971;28;20280;-70
2022/03/18 03:58:07;;;;;;;31.73;11.67;;;;;;;-1.28;54.45;102517.41;4202238;28;20232;-70
2022/03/18 04:00:36;;;;;;;26.80;11.63;;;;;;;-1.23;54.03;102517.34;4196495;28;20236;-72
2022/03/18 04:03:04;;;;;;;29.80;12.03;;;;;;;-1.38;54.47;102519.28;4198238;28;20237;-70
2022/03/18 04:05:34;;;;;;;29.90;11.80;;;;;;;-1.44;54.77;102521.94;4209205;28;21277;-71
2022/03/18 04:08:01;;;;;;;34.60;13.30;;;;;;;-1.44;55.16;102529.78;4207041;28;20307;-70
2022/03/18 04:10:27;;;;;;;25.70;11.40;;;;;;;-1.46;55.18;102528.91;4194111;28;20271;-69
2022/03/18 04:12:54;;;;;;;30.60;11.70;;;;;;;-1.49;54.82;102536.78;4193135;28;23667;-72
2022/03/18 04:15:21;;;;;;;28.13;12.27;;;;;;;-1.48;55.26;102538.50;4211714;28;20396;-72
2022/03/18 04:17:49;;;;;;;29.30;12.10;;;;;;;-1.49;55.03;102539.41;4196206;28;20241;-69
2022/03/18 04:20:17;;;;;;;31.07;11.73;;;;;;;-1.50;55.30;102537.66;4185695;28;20241;-70
2022/03/18 04:22:44;;;;;;;31.43;12.00;;;;;;;-1.53;55.37;102551.59;4203052;28;22830;-70
2022/03/18 04:25:11;;;;;;;32.43;11.97;;;;;;;-1.51;55.27;102556.81;4201094;28;20237;-71
2022/03/18 04:27:38;;;;;;;34.87;11.93;;;;;;;-1.53;55.72;102545.53;4193978;28;21664;-70
2022/03/18 04:30:06;;;;;;;32.63;12.10;;;;;;;-1.55;55.72;102552.50;4191172;28;20293;-71
2022/03/18 04:32:33;;;;;;;26.87;11.17;;;;;;;-1.58;55.50;102560.38;4199380;28;20235;-70
2022/03/18 04:35:00;;;;;;;30.90;11.93;;;;;;;-1.59;55.57;102564.75;4203417;28;20247;-71
2022/03/18 04:37:26;;;;;;;30.10;11.40;;;;;;;-1.56;55.26;102571.66;4195120;28;21245;-70
2022/03/18 04:39:53;;;;;;;28.60;11.73;;;;;;;-1.54;55.73;102569.91;4192054;28;21480;-69
2022/03/18 04:42:20;;;;;;;30.97;12.00;;;;;;;-1.57;56.04;102567.31;4193143;28;21065;-70
2022/03/18 04:44:46;;;;;;;35.53;12.73;;;;;;;-1.59;55.39;102567.34;4211669;28;20313;-70
2022/03/18 04:47:13;;;;;;;29.27;11.87;;;;;;;-1.53;56.04;102576.84;4195145;28;20820;-69
2022/03/18 04:49:40;;;;;;;27.27;11.70;;;;;;;-1.40;54.81;102575.00;4190027;28;20304;-70
2022/03/18 04:52:07;;;;;;;29.97;11.57;;;;;;;-1.41;55.43;102579.34;4197644;28;20312;-68
2022/03/18 04:54:34;;;;;;;31.00;11.27;;;;;;;-1.39;55.09;102580.19;4199300;28;20682;-70
2022/03/18 04:57:18;;;;;;;32.13;11.27;;;;;;;-1.47;55.53;102583.78;4194786;28;21003;-72
2022/03/18 04:59:47;;;;;;;27.97;12.10;;;;;;;-1.45;55.73;102582.88;4205370;28;22114;-70
2022/03/18 05:02:16;;;;;;;30.00;12.50;;;;;;;-1.56;56.10;102589.94;4218826;28;20227;-70
2022/03/18 05:04:44;;;;;;;30.27;11.27;;;;;;;-1.58;56.00;102583.88;4211902;28;20798;-71
2022/03/18 05:07:11;;;;;;;37.03;11.87;;;;;;;-1.53;56.03;102585.53;4219409;28;20232;-70
2022/03/18 05:09:39;;;;;;;31.77;11.50;;;;;;;-1.38;55.13;102595.00;4198370;28;20237;-70
2022/03/18 05:12:11;;;;;;;32.07;11.97;;;;;;;-1.41;55.66;102599.38;4208412;28;20236;-69
2022/03/18 05:14:38;;;;;;;24.23;11.40;;;;;;;-1.42;55.77;102600.25;4190093;28;20234;-70
2022/03/18 05:17:07;;;;;;;31.93;11.93;;;;;;;-1.40;55.34;102608.97;4217004;28;20224;-69
2022/03/18 05:19:35;;;;;;;28.20;11.90;;;;;;;-1.46;56.14;102609.84;4201458;28;22362;-70
2022/03/18 05:22:02;;;;;;;26.87;11.57;;;;;;;-1.32;55.74;102605.38;4186277;28;20295;-71
2022/03/18 05:24:29;;;;;;;32.67;12.70;;;;;;;-1.33;55.60;102608.88;4215828;28;20277;-70
2022/03/18 05:26:56;;;;;;;28.60;12.67;;;;;;;-1.38;55.62;102610.66;4210550;28;22373;-71
2022/03/18 05:29:25;;;;;;;28.37;11.90;;;;;;;-1.37;56.07;102615.00;4184164;28;21844;-69
2022/03/18 05:31:52;;;;;;;31.87;13.00;;;;;;;-1.38;55.73;102620.22;4217101;28;25443;-68
2022/03/18 05:34:18;;;;;;;25.33;11.47;;;;;;;-1.38;55.82;102615.00;4206875;28;20229;-72
2022/03/18 05:36:45;;;;;;;25.63;12.53;;;;;;;-1.32;55.28;102615.81;4182826;28;20249;-70
2022/03/18 05:39:12;;;;;;;34.63;12.50;;;;;;;-1.24;55.59;102627.94;4196344;28;20339;-72
2022/03/18 05:41:39;;;;;;;32.43;11.73;;;;;;;-1.23;55.40;102625.31;4190401;28;20490;-73
2022/03/18 05:44:05;;;;;;;31.60;12.17;;;;;;;-1.21;55.35;102638.38;4206277;28;20303;-71
2022/03/18 05:46:37;;;;;;;34.30;11.73;;;;;;;-1.13;55.10;102631.31;4198333;28;21806;-71
2022/03/18 05:49:04;;;;;;;33.20;12.40;;;;;;;-1.06;54.56;102636.44;4182666;28;20681;-72
2022/03/18 05:51:31;;;;;;;39.43;12.50;;;;;;;-1.00;54.64;102643.38;4206547;28;20658;-72
2022/03/18 05:53:57;;;;;;;33.60;12.00;;;;;;;-0.98;53.69;102636.38;4193429;28;20287;-71
2022/03/18 05:59:10;;;;;;;29.43;11.83;;;;;;;-0.91;53.12;102645.03;4202980;28;22090;-68
2022/03/18 06:01:38;;;;;;;24.93;11.53;;;;;;;-0.82;52.82;102646.66;4195045;28;21587;-67
2022/03/18 06:04:06;;;;;;;29.37;11.17;;;;;;;-0.73;53.00;102644.78;4188716;28;20287;-74
2022/03/18 06:06:33;;;;;;;27.70;11.73;;;;;;;-0.70;53.14;102646.53;4208508;28;21675;-70
2022/03/18 06:11:54;;;;;;;27.57;11.37;;;;;;;-0.57;51.47;102650.72;4216514;28;22070;-73
2022/03/18 06:14:25;;;;;;;33.83;11.50;;;;;;;-0.50;51.90;102657.59;4195257;28;20726;-72
2022/03/18 06:16:53;;;;;;;31.83;11.47;;;;;;;-0.35;51.11;102663.50;4200128;28;20320;-69
2022/03/18 06:19:21;;;;;;;27.20;11.27;;;;;;;-0.29;50.87;102666.91;4200971;28;20233;-67
2022/03/18 06:21:48;;;;;;;30.03;9.90;;;;;;;-0.20;50.61;102673.78;4186627;28;21266;-68
2022/03/18 06:24:16;;;;;;;31.90;10.47;;;;;;;-0.10;50.44;102674.53;4206358;28;20315;-74
2022/03/18 06:26:42;;;;;;;28.70;10.27;;;;;;;0.02;49.61;102683.94;4203744;28;21917;-72
2022/03/18 06:29:09;;;;;;;27.83;10.17;;;;;;;0.08;48.85;102689.13;4208857;28;20236;-70
2022/03/18 06:31:36;;;;;;;24.57;10.90;;;;;;;0.15;48.55;102688.13;4198533;28;20724;-69
2022/03/18 06:34:03;;;;;;;29.73;10.67;;;;;;;0.19;48.63;102693.31;4211734;28;20281;-71
2022/03/18 06:36:30;;;;;;;21.60;10.40;;;;;;;0.20;48.12;102689.78;4203871;28;20284;-75
2022/03/18 06:38:57;;;;;;;26.00;11.03;;;;;;;0.23;48.01;102691.50;4206221;28;20244;-77
2022/03/18 06:41:23;;;;;;;26.63;10.63;;;;;;;0.49;47.81;102695.47;4238318;28;20307;-76
2022/03/18 06:43:50;;;;;;;32.25;12.35;;;;;;;0.57;47.45;102698.84;4204448;28;20587;-73
2022/03/18 06:46:17;;;;;;;26.10;10.67;;;;;;;0.75;46.26;102698.53;4196413;28;20441;-71
2022/03/18 06:48:44;;;;;;;37.07;10.90;;;;;;;0.76;46.56;102696.78;4196154;28;21834;-71
2022/03/18 06:51:11;;;;;;;39.43;11.27;;;;;;;0.81;46.08;102700.19;4213472;28;20231;-71
2022/03/18 06:53:37;;;;;;;33.50;11.57;;;;;;;0.81;45.90;102701.03;4195057;28;20228;-71
2022/03/18 06:56:07;;;;;;;30.57;10.90;;;;;;;0.81;46.15;102698.41;4195122;28;20235;-72
2022/03/18 06:58:34;;;;;;;28.00;9.80;;;;;;;0.83;46.03;102701.88;4220890;28;22264;-67
2022/03/18 07:01:01;;;;;;;26.40;10.30;;;;;;;0.97;45.30;102708.66;4207483;28;20233;-68
2022/03/18 07:03:27;;;;;;;24.83;10.50;;;;;;;1.03;44.75;102703.28;4186257;28;21982;-69
2022/03/18 07:05:54;;;;;;;27.33;10.10;;;;;;;1.20;44.15;102711.72;4191205;28;21505;-65
2022/03/18 07:08:21;;;;;;;27.23;9.90;;;;;;;1.34;43.00;102714.09;4189202;28;20237;-67
2022/03/18 07:10:50;;;;;;;28.27;9.10;;;;;;;1.35;42.74;102712.31;4204801;28;20232;-66
2022/03/18 07:13:16;;;;;;;23.47;8.83;;;;;;;1.50;42.21;102713.75;4198563;28;20240;-69
2022/03/18 07:15:43;;;;;;;34.77;9.30;;;;;;;1.45;42.21;102721.72;4191676;28;21924;-71
2022/03/18 07:18:11;;;;;;;21.20;8.77;;;;;;;1.41;41.79;102722.69;4189947;28;20268;-71
2022/03/18 07:20:38;;;;;;;20.77;8.43;;;;;;;1.57;41.38;102721.50;4196040;28;20792;-70
2022/03/18 07:23:16;;;;;;;30.80;8.93;;;;;;;1.64;40.82;102728.34;4215258;28;20234;-69
2022/03/18 07:25:44;;;;;;;27.23;8.87;;;;;;;1.77;40.40;102725.47;4203697;28;20920;-67
2022/03/18 07:28:12;;;;;;;31.87;8.20;;;;;;;1.89;39.62;102727.84;4203745;28;20236;-71
2022/03/18 07:30:41;;;;;;;26.93;8.53;;;;;;;2.26;39.45;102725.28;4202891;28;20239;-67
2022/03/18 07:33:08;;;;;;;23.93;8.20;;;;;;;2.75;38.13;102726.72;4211153;28;20264;-72
2022/03/18 07:35:35;;;;;;;29.00;8.93;;;;;;;3.21;36.80;102729.97;4218926;28;20955;-67
2022/03/18 07:38:03;;;;;;;17.73;7.57;;;;;;;4.25;34.53;102738.41;4201066;28;23262;-69
2022/03/18 07:40:30;;;;;;;23.40;8.40;;;;;;;6.45;31.21;102750.03;4193757;28;20242;-66
2022/03/18 07:42:58;;;;;;;29.63;8.37;;;;;;;8.66;26.77;102759.66;4210654;28;20240;-71
2022/03/18 07:45:28;;;;;;;25.97;8.63;;;;;;;10.09;24.62;102776.19;4222674;28;20751;-68
2022/03/18 07:47:59;;;;;;;25.73;8.33;;;;;;;11.32;22.74;102782.47;4209102;28;20386;-67
2022/03/18 07:50:27;;;;;;;20.20;8.30;;;;;;;13.28;20.00;102792.28;4223825;28;20728;-70
2022/03/18 07:52:59;;;;;;;24.70;8.13;;;;;;;12.28;20.76;102795.28;4205972;28;21168;-68
2022/03/18 07:55:27;;;;;;;17.83;7.10;;;;;;;13.12;19.34;102797.75;4223837;28;20232;-67
2022/03/18 07:57:55;;;;;;;21.80;7.67;;;;;;;13.89;18.78;102809.41;4214243;28;21801;-72
2022/03/18 08:00:22;;;;;;;26.70;8.87;;;;;;;12.62;19.42;102802.84;4228590;28;20234;-69
2022/03/18 08:02:50;;;;;;;22.33;7.33;;;;;;;11.74;20.86;102795.97;4223814;28;20434;-67
2022/03/18 08:05:17;;;;;;;25.33;7.53;;;;;;;12.41;20.49;102796.22;4205848;28;20224;-68
2022/03/18 08:07:44;;;;;;;16.47;7.60;;;;;;;14.39;17.65;102808.56;4220367;28;20239;-68
2022/03/18 08:10:11;;;;;;;16.70;7.17;;;;;;;16.16;16.22;102807.56;4199764;28;23360;-67
2022/03/18 08:12:39;;;;;;;14.30;7.47;;;;;;;15.73;16.24;102811.00;4213745;28;25415;-69
2022/03/18 08:15:11;;;;;;;26.83;7.63;;;;;;;13.97;17.29;102813.38;4201738;28;20250;-68
2022/03/18 08:17:38;;;;;;;15.63;7.80;;;;;;;13.04;19.08;102800.97;4228871;28;20287;-69
2022/03/18 08:20:10;;;;;;;16.90;6.80;;;;;;;13.42;18.75;102810.06;4214636;28;20259;-70
2022/03/18 08:22:38;;;;;;;16.77;7.13;;;;;;;15.15;16.94;102813.63;4204448;28;20238;-69
2022/03/18 08:25:05;;;;;;;13.13;6.70;;;;;;;15.39;16.07;102816.25;4200281;28;20784;-68
2022/03/18 08:27:35;;;;;;;14.17;7.07;;;;;;;14.94;16.38;102813.41;4210346;28;20237;-68
2022/03/18 08:30:06;;;;;;;13.87;6.67;;;;;;;13.97;17.45;102821.41;4206540;28;20229;-68
2022/03/18 08:32:33;;;;;;;14.17;6.47;;;;;;;15.88;16.10;102827.72;4204086;28;20244;-69
2022/03/18 08:35:01;;;;;;;12.27;6.40;;;;;;;15.92;16.19;102823.81;4212510;28;24100;-68
2022/03/18 08:40:13;;;;;;;15.37;6.03;;;;;;;12.09;18.56;102799.13;4211962;28;21586;-69
2022/03/18 08:42:40;;;;;;;21.40;6.60;;;;;;;10.80;20.73;102801.53;4205061;28;20267;-68
2022/03/18 08:45:08;;;;;;;19.83;6.80;;;;;;;9.93;21.66;102796.56;4218622;28;20289;-68
2022/03/18 08:47:35;;;;;;;17.37;6.43;;;;;;;9.22;22.53;102794.91;4195485;28;20584;-74
2022/03/18 08:50:02;;;;;;;17.03;6.63;;;;;;;8.56;23.96;102779.59;4192859;28;21535;-70
2022/03/18 08:52:28;;;;;;;14.80;6.10;;;;;;;7.24;25.31;102771.50;4208741;28;20233;-69
2022/03/18 08:54:55;;;;;;;16.83;6.30;;;;;;;6.59;26.19;102779.44;4191410;28;20245;-69
2022/03/18 08:57:22;;;;;;;15.63;5.80;;;;;;;6.17;27.25;102777.53;4202207;28;20371;-68
2022/03/18 08:59:48;;;;;;;20.50;6.47;;;;;;;6.32;26.80;102768.16;4222355;28;20232;-67
2022/03/18 09:02:15;;;;;;;16.77;6.27;;;;;;;6.31;27.37;102783.16;4283841;28;20340;-73
2022/03/18 09:04:43;;;;;;;27.90;7.47;;;;;;;6.16;27.61;102781.13;4204390;28;20877;-74
2022/03/18 09:07:11;;;;;;;14.20;6.70;;;;;;;6.08;27.39;102786.69;4215966;28;20675;-67
2022/03/18 09:09:38;;;;;;;19.63;6.40;;;;;;;6.50;27.04;102777.16;4223708;28;21347;-68
2022/03/18 09:12:05;;;;;;;15.53;6.90;;;;;;;6.40;27.20;102781.09;4211331;28;21482;-68
2022/03/18 09:14:34;;;;;;;20.90;6.93;;;;;;;6.03;27.72;102779.84;4223373;28;21289;-66
2022/03/18 09:17:02;;;;;;;14.97;7.03;;;;;;;6.12;27.58;102782.16;4223333;28;20974;-65
2022/03/18 09:19:28;;;;;;;16.60;7.07;;;;;;;5.84;28.23;102780.50;4205786;28;25666;-66
2022/03/18 09:21:55;;;;;;;18.63;6.83;;;;;;;5.92;28.02;102786.38;4233155;28;20239;-66
2022/03/18 09:24:22;;;;;;;22.43;7.13;;;;;;;6.04;27.69;102784.22;4236816;28;20228;-65
2022/03/18 09:26:48;;;;;;;15.00;6.70;;;;;;;6.26;28.49;102789.56;4205519;28;20232;-65
2022/03/18 09:29:15;;;;;;;25.03;7.20;;;;;;;6.34;28.00;102788.34;4220476;28;21345;-65
2022/03/18 09:31:42;;;;;;;20.23;6.67;;;;;;;6.50;27.99;102772.72;4206651;28;20237;-66
2022/03/18 09:34:09;;;;;;;16.17;6.23;;;;;;;6.73;26.91;102787.69;4207782;28;21536;-64
2022/03/18 09:36:36;;;;;;;11.83;6.03;;;;;;;6.61;26.89;102785.53;4200344;28;20220;-68
2022/03/18 09:39:03;;;;;;;13.97;6.50;;;;;;;6.71;27.79;102778.94;4195087;28;26254;-68
2022/03/18 09:41:30;;;;;;;15.43;6.70;;;;;;;7.09;25.96;102768.53;4211922;28;20244;-66
2022/03/18 09:43:57;;;;;;;13.00;5.73;;;;;;;6.82;25.39;102777.66;4245246;28;20361;-66
2022/03/18 09:46:23;;;;;;;19.37;6.33;;;;;;;6.72;26.03;102787.75;4190565;28;25238;-69
2022/03/18 09:48:59;;;;;;;13.83;6.00;;;;;;;6.39;26.21;102771.41;4213600;28;21714;-67
2022/03/18 09:51:26;;;;;;;13.07;5.60;;;;;;;5.96;27.71;102788.94;4227352;28;20244;-66
2022/03/18 09:54:13;;;;;;;15.53;6.23;;;;;;;6.24;27.45;102784.31;4204034;28;20539;-68
2022/03/18 09:56:42;;;;;;;23.60;6.03;;;;;;;6.37;27.46;102770.63;4206305;28;21632;-66
2022/03/18 09:59:09;;;;;;;19.23;6.33;;;;;;;6.48;27.54;102773.72;4198102;28;20330;-66
2022/03/18 10:01:36;;;;;;;21.50;7.00;;;;;;;6.69;27.11;102778.13;4228997;28;20241;-68
2022/03/18 10:04:07;;;;;;;13.53;6.27;;;;;;;6.82;27.38;102772.38;4216651;28;20236;-67
2022/03/18 10:06:34;;;;;;;21.87;6.40;;;;;;;6.53;27.27;102777.03;4204729;28;20244;-66
2022/03/18 10:09:02;;;;;;;16.73;6.47;;;;;;;6.60;27.25;102782.94;4205413;28;20314;-65
2022/03/18 10:11:31;;;;;;;14.23;6.43;;;;;;;6.32;27.91;102784.91;4209204;28;21186;-64
2022/03/18 10:14:00;;;;;;;14.40;5.70;;;;;;;6.45;27.34;102779.13;4199607;28;20232;-68
2022/03/18 10:16:41;;;;;;;21.77;6.67;;;;;;;6.32;27.16;102779.63;4183546;28;20242;-66
2022/03/18 10:19:16;;;;;;;13.57;6.40;;;;;;;6.41;27.92;102774.88;4212858;28;21849;-65
2022/03/18 10:22:05;;;;;;;16.40;6.57;;;;;;;6.40;26.98;102773.16;4186865;28;20352;-65
2022/03/18 10:24:37;;;;;;;19.90;6.30;;;;;;;6.33;27.62;102791.91;4202525;28;20428;-66
2022/03/18 10:27:12;;;;;;;17.50;6.70;;;;;;;6.47;27.81;102780.78;4195100;28;21997;-67
2022/03/18 10:29:54;;;;;;;14.53;6.37;;;;;;;6.25;26.57;102779.88;4187275;28;20239;-69
2022/03/18 10:32:23;;;;;;;16.23;5.90;;;;;;;6.08;26.91;102770.81;4208144;28;20239;-66
2022/03/18 10:37:45;;;;;;;17.57;6.10;;;;;;;6.56;26.66;102782.22;4202850;28;20967;-66
2022/03/18 10:40:13;;;;;;;13.03;5.53;;;;;;;6.86;27.66;102784.53;4217912;28;23020;-65
2022/03/18 10:42:40;;;;;;;13.33;5.53;;;;;;;6.93;26.78;102780.69;4215403;28;20232;-69
2022/03/18 10:45:08;;;;;;;12.93;5.80;;;;;;;6.88;26.37;102782.69;4195286;28;22088;-69
2022/03/18 10:47:36;;;;;;;17.17;5.70;;;;;;;6.55;26.41;102773.41;4201145;28;20707;-68
2022/03/18 10:50:11;;;;;;;13.30;5.83;;;;;;;6.54;26.86;102789.34;4205619;28;20253;-65
2022/03/18 10:52:48;;;;;;;14.30;5.77;;;;;;;6.72;25.10;102778.03;4192121;28;20243;-66
2022/03/18 10:55:16;;;;;;;14.37;6.37;;;;;;;6.45;25.91;102781.78;4206347;28;22948;-67
2022/03/18 10:58:06;;;;;;;10.10;5.00;;;;;;;6.41;24.67;102767.78;4212384;28;21319;-68
2022/03/18 11:00:35;;;;;;;17.10;6.53;;;;;;;6.44;25.62;102782.69;4211273;28;20230;-68
2022/03/18 11:03:03;;;;;;;11.77;5.00;;;;;;;6.41;25.29;102782.81;4201113;28;20511;-67
2022/03/18 11:05:32;;;;;;;16.10;5.80;;;;;;;6.71;25.11;102784.22;4211928;28;20235;-66
2022/03/18 11:08:04;;;;;;;11.33;5.17;;;;;;;6.72;25.36;102785.97;4190878;28;20233;-67
2022/03/18 11:13:21;;;;;;;16.20;6.13;;;;;;;6.71;25.35;102780.72;4218267;28;21792;-70
2022/03/18 11:15:49;;;;;;;10.83;5.97;;;;;;;6.83;25.34;102785.50;4195647;28;20282;-71
2022/03/18 11:18:15;;;;;;;12.97;5.30;;;;;;;6.86;26.38;102780.13;4208727;28;21658;-71
2022/03/18 11:20:43;;;;;;;16.70;6.03;;;;;;;6.92;25.70;102785.13;4207105;28;21671;-71
2022/03/18 11:23:17;;;;;;;11.77;5.83;;;;;;;6.66;26.62;102775.63;4192514;28;20252;-70
2022/03/18 11:25:54;;;;;;;14.10;5.43;;;;;;;6.87;26.30;102775.69;4204919;28;20332;-69
2022/03/18 11:28:21;;;;;;;14.70;6.17;;;;;;;6.41;25.88;102767.78;4202585;28;21886;-70
2022/03/18 11:31:00;;;;;;;15.87;6.23;;;;;;;6.39;26.35;102768.78;4229649;28;22784;-69
2022/03/18 11:33:27;;;;;;;14.40;6.47;;;;;;;6.65;26.13;102768.63;4199927;28;22248;-71
2022/03/18 11:35:54;;;;;;;14.53;5.97;;;;;;;6.86;25.86;102779.22;4206569;28;21692;-70
2022/03/18 11:38:23;;;;;;;16.53;6.23;;;;;;;6.90;25.51;102775.53;4215407;28;20302;-69
2022/03/18 11:40:53;;;;;;;13.50;6.33;;;;;;;7.19;25.10;102775.19;4220600;28;21282;-70
2022/03/18 11:43:39;;;;;;;12.23;5.77;;;;;;;7.19;24.92;102771.69;4207442;28;20233;-70